createdAt,value
2018-06-27T00:00:09.638Z,99.99
2018-06-27T00:01:09.703Z,99.99
2018-06-27T00:02:09.693Z,99.99
2018-06-27T00:03:09.684Z,99.99
2018-06-27T00:04:09.700Z,99.99
2018-06-27T00:05:09.738Z,99.99
2018-06-27T00:06:09.725Z,99.99
2018-06-27T00:07:09.742Z,99.99
2018-06-27T00:08:09.756Z,99.99
2018-06-27T00:09:09.781Z,99.99
2018-06-27T00:10:10.092Z,99.99
2018-06-27T00:11:09.821Z,99.99
2018-06-27T00:12:09.821Z,99.99
2018-06-27T00:13:09.831Z,99.99
2018-06-27T00:14:09.846Z,99.99
2018-06-27T00:15:09.879Z,99.99
2018-06-27T00:16:09.888Z,99.99
2018-06-27T00:17:09.889Z,99.99
2018-06-27T00:18:09.904Z,99.99
2018-06-27T00:19:09.920Z,99.99
2018-06-27T00:20:09.933Z,99.99
2018-06-27T00:21:09.945Z,99.99
2018-06-27T00:23:10.057Z,99.99
2018-06-27T00:24:09.993Z,99.99
2018-06-27T00:25:10.006Z,99.99
2018-06-27T00:26:10.022Z,99.99
2018-06-27T00:27:10.039Z,99.99
2018-06-27T00:28:10.063Z,99.99
2018-06-27T00:29:10.094Z,99.99
2018-06-27T00:30:10.096Z,99.99
2018-06-27T00:31:10.156Z,99.99
2018-06-27T00:32:10.110Z,99.99
2018-06-27T00:33:10.130Z,99.99
2018-06-27T00:34:10.139Z,99.99
2018-06-27T00:35:10.155Z,99.99
2018-06-27T00:36:10.171Z,99.99
2018-06-27T00:37:10.198Z,99.99
2018-06-27T00:38:10.201Z,99.99
2018-06-27T00:39:10.222Z,99.99
2018-06-27T00:40:10.263Z,99.99
2018-06-27T00:41:10.252Z,99.99
2018-06-27T00:42:10.276Z,99.99
2018-06-27T00:43:10.281Z,99.99
2018-06-27T00:44:10.294Z,99.99
2018-06-27T00:45:10.303Z,99.99
2018-06-27T00:46:10.330Z,99.99
2018-06-27T00:47:10.330Z,99.99
2018-06-27T00:48:10.344Z,99.99
2018-06-27T00:49:10.357Z,99.99
2018-06-27T00:50:10.374Z,99.99
2018-06-27T00:51:10.387Z,99.99
2018-06-27T00:53:10.445Z,99.99
2018-06-27T00:54:10.430Z,99.99
2018-06-27T00:55:10.470Z,99.99
2018-06-27T00:56:10.462Z,99.99
2018-06-27T00:57:10.560Z,99.99
2018-06-27T00:58:10.503Z,99.99
2018-06-27T00:59:10.512Z,99.99
2018-06-27T01:00:10.518Z,99.99
2018-06-27T01:01:10.535Z,99.99
2018-06-27T01:02:10.547Z,99.99
2018-06-27T01:03:10.567Z,99.99
2018-06-27T01:04:10.582Z,99.99
2018-06-27T01:05:10.637Z,99.99
2018-06-27T01:06:10.612Z,99.99
2018-06-27T01:07:10.630Z,99.99
2018-06-27T01:08:10.636Z,99.99
2018-06-27T01:09:10.648Z,99.99
2018-06-27T01:10:10.662Z,99.99
2018-06-27T01:11:10.676Z,99.99
2018-06-27T01:12:10.691Z,99.99
2018-06-27T01:13:10.707Z,99.99
2018-06-27T01:14:10.722Z,99.99
2018-06-27T01:15:10.738Z,99.99
2018-06-27T01:16:10.750Z,99.99
2018-06-27T01:17:10.819Z,99.99
2018-06-27T01:18:10.826Z,99.99
2018-06-27T01:19:10.796Z,99.99
2018-06-27T01:20:10.884Z,99.99
2018-06-27T01:21:10.825Z,99.99
2018-06-27T01:22:10.837Z,99.99
2018-06-27T01:23:10.858Z,99.99
2018-06-27T01:24:10.931Z,99.99
2018-06-27T01:25:11.011Z,99.99
2018-06-27T01:26:10.908Z,99.99
2018-06-27T01:27:10.920Z,99.99
2018-06-27T01:28:10.926Z,99.99
2018-06-27T01:29:10.937Z,99.99
2018-06-27T01:30:10.991Z,99.99
2018-06-27T01:31:10.970Z,99.99
2018-06-27T01:32:10.982Z,99.99
2018-06-27T01:33:10.997Z,99.99
2018-06-27T01:34:11.085Z,99.99
2018-06-27T01:35:11.060Z,99.99
2018-06-27T01:36:11.098Z,99.99
2018-06-27T01:37:11.053Z,99.99
2018-06-27T01:38:11.074Z,99.99
2018-06-27T01:39:11.084Z,99.99
2018-06-27T01:40:11.577Z,99.99
2018-06-27T01:42:11.127Z,99.99
2018-06-27T01:43:11.146Z,99.99
2018-06-27T01:44:11.156Z,99.99
2018-06-27T01:45:11.185Z,99.99
2018-06-27T01:46:11.186Z,99.99
2018-06-27T01:47:11.199Z,99.99
2018-06-27T01:48:11.214Z,99.99
2018-06-27T01:49:11.226Z,99.99
2018-06-27T01:50:11.247Z,99.99
2018-06-27T01:51:11.278Z,99.99
2018-06-27T01:52:11.272Z,99.99
2018-06-27T01:53:11.285Z,99.99
2018-06-27T01:54:11.298Z,99.99
2018-06-27T01:55:11.313Z,99.99
2018-06-27T01:56:11.330Z,99.99
2018-06-27T01:57:11.345Z,99.99
2018-06-27T01:58:11.359Z,99.99
2018-06-27T01:59:11.371Z,99.99
2018-06-27T02:00:11.395Z,99.99
2018-06-27T02:01:11.417Z,99.99
2018-06-27T02:02:11.629Z,99.99
2018-06-27T02:03:11.463Z,99.99
2018-06-27T02:04:11.860Z,99.99
2018-06-27T02:05:11.461Z,99.99
2018-06-27T02:06:11.471Z,99.99
2018-06-27T02:07:11.486Z,99.99
2018-06-27T02:08:11.641Z,99.99
2018-06-27T02:09:11.516Z,99.99
2018-06-27T02:10:11.543Z,99.99
2018-06-27T02:11:11.544Z,99.99
2018-06-27T02:12:11.560Z,99.99
2018-06-27T02:13:11.626Z,99.99
2018-06-27T02:14:11.597Z,99.99
2018-06-27T02:15:11.604Z,99.99
2018-06-27T02:16:11.645Z,99.99
2018-06-27T02:17:11.643Z,99.99
2018-06-27T02:18:11.645Z,99.99
2018-06-27T02:19:11.664Z,99.99
2018-06-27T02:20:11.673Z,99.99
2018-06-27T02:21:11.688Z,99.99
2018-06-27T02:22:11.705Z,99.99
2018-06-27T02:23:11.734Z,99.99
2018-06-27T02:24:11.747Z,99.99
2018-06-27T02:25:11.745Z,99.99
2018-06-27T02:26:11.762Z,99.99
2018-06-27T02:27:11.775Z,99.99
2018-06-27T02:28:11.795Z,99.99
2018-06-27T02:29:11.806Z,99.99
2018-06-27T02:30:11.818Z,99.99
2018-06-27T02:31:11.832Z,99.99
2018-06-27T02:33:11.863Z,99.99
2018-06-27T02:34:11.874Z,99.99
2018-06-27T02:35:11.887Z,99.99
2018-06-27T02:36:11.908Z,99.99
2018-06-27T02:37:11.934Z,99.99
2018-06-27T02:38:11.936Z,99.99
2018-06-27T02:39:11.944Z,99.99
2018-06-27T02:40:11.975Z,99.99
2018-06-27T02:41:11.986Z,99.99
2018-06-27T02:42:12.007Z,99.99
2018-06-27T02:43:12.146Z,99.99
2018-06-27T02:44:12.017Z,99.99
2018-06-27T02:45:12.033Z,99.99
2018-06-27T02:46:12.046Z,99.99
2018-06-27T02:47:12.060Z,99.99
2018-06-27T02:48:12.080Z,99.99
2018-06-27T02:49:12.091Z,99.99
2018-06-27T02:50:12.101Z,99.99
2018-06-27T02:51:12.119Z,99.99
2018-06-27T02:52:12.130Z,99.99
2018-06-27T02:53:12.157Z,99.99
2018-06-27T02:54:12.162Z,99.99
2018-06-27T02:55:12.179Z,99.99
2018-06-27T02:56:12.193Z,99.99
2018-06-27T02:57:12.223Z,99.99
2018-06-27T02:58:12.217Z,99.99
2018-06-27T02:59:12.232Z,99.99
2018-06-27T03:00:12.244Z,99.99
2018-06-27T03:01:12.262Z,99.99
2018-06-27T03:02:12.298Z,99.99
2018-06-27T03:03:12.338Z,99.99
2018-06-27T03:04:12.313Z,99.99
2018-06-27T03:05:12.374Z,99.99
2018-06-27T03:06:13.112Z,99.99
2018-06-27T03:07:12.356Z,99.99
2018-06-27T03:08:12.362Z,99.99
2018-06-27T03:09:12.373Z,99.99
2018-06-27T03:10:12.386Z,99.99
2018-06-27T03:11:12.407Z,99.99
2018-06-27T03:12:12.431Z,99.99
2018-06-27T03:13:12.437Z,99.99
2018-06-27T03:14:12.963Z,99.99
2018-06-27T03:15:12.475Z,99.99
2018-06-27T03:16:12.485Z,99.99
2018-06-27T03:17:12.490Z,99.99
2018-06-27T03:18:12.506Z,99.99
2018-06-27T03:19:12.576Z,99.99
2018-06-27T03:20:12.559Z,99.99
2018-06-27T03:21:12.546Z,99.99
2018-06-27T03:22:12.558Z,99.99
2018-06-27T03:23:12.576Z,99.99
2018-06-27T03:24:12.609Z,99.99
2018-06-27T03:25:12.619Z,99.99
2018-06-27T03:26:12.613Z,99.99
2018-06-27T03:27:12.628Z,99.99
2018-06-27T03:28:12.643Z,99.99
2018-06-27T03:29:12.683Z,99.99
2018-06-27T03:30:12.675Z,99.99
2018-06-27T03:31:12.713Z,99.99
2018-06-27T03:32:12.726Z,99.99
2018-06-27T03:33:12.715Z,99.99
2018-06-27T03:34:12.727Z,99.99
2018-06-27T03:35:12.753Z,99.99
2018-06-27T03:36:12.806Z,99.99
2018-06-27T03:37:12.903Z,99.99
2018-06-27T03:38:12.900Z,99.99
2018-06-27T03:40:13.011Z,99.99
2018-06-27T03:41:12.865Z,99.99
2018-06-27T03:42:12.841Z,99.99
2018-06-27T03:43:12.855Z,99.99
2018-06-27T03:44:12.870Z,99.99
2018-06-27T03:45:12.882Z,99.99
2018-06-27T03:46:12.896Z,99.99
2018-06-27T03:47:12.916Z,99.99
2018-06-27T03:48:12.927Z,99.99
2018-06-27T03:49:12.939Z,99.99
2018-06-27T03:50:12.977Z,99.99
2018-06-27T03:51:12.970Z,99.99
2018-06-27T03:52:12.982Z,99.99
2018-06-27T03:53:12.997Z,99.99
2018-06-27T03:54:13.020Z,99.99
2018-06-27T03:55:13.028Z,99.99
2018-06-27T03:56:13.042Z,99.99
2018-06-27T03:57:13.053Z,99.99
2018-06-27T03:58:13.082Z,99.99
2018-06-27T03:59:13.088Z,99.99
2018-06-27T04:00:13.160Z,99.99
2018-06-27T04:01:13.149Z,99.99
2018-06-27T04:02:13.160Z,99.99
2018-06-27T04:03:13.189Z,99.99
2018-06-27T04:04:13.151Z,99.99
2018-06-27T04:05:13.171Z,99.99
2018-06-27T04:06:13.188Z,99.99
2018-06-27T04:07:13.195Z,99.99
2018-06-27T04:08:13.295Z,99.99
2018-06-27T04:10:13.313Z,99.99
2018-06-27T04:11:13.255Z,99.99
2018-06-27T04:12:13.285Z,99.99
2018-06-27T04:13:13.357Z,99.99
2018-06-27T04:14:13.294Z,99.99
2018-06-27T04:15:13.466Z,99.99
2018-06-27T04:16:13.324Z,99.99
2018-06-27T04:17:13.336Z,99.99
2018-06-27T04:18:13.365Z,99.99
2018-06-27T04:19:13.364Z,99.99
2018-06-27T04:20:13.426Z,99.99
2018-06-27T04:21:13.397Z,99.99
2018-06-27T04:22:13.409Z,99.99
2018-06-27T04:23:13.423Z,99.99
2018-06-27T04:24:13.438Z,99.99
2018-06-27T04:25:13.461Z,99.99
2018-06-27T04:26:13.477Z,99.99
2018-06-27T04:27:13.481Z,99.99
2018-06-27T04:28:13.495Z,99.99
2018-06-27T04:29:13.522Z,99.99
2018-06-27T04:30:13.835Z,99.99
2018-06-27T04:31:13.611Z,99.99
2018-06-27T04:32:13.723Z,99.99
2018-06-27T04:33:13.576Z,99.99
2018-06-27T04:34:13.725Z,99.99
2018-06-27T04:35:13.601Z,99.99
2018-06-27T04:36:13.733Z,99.99
2018-06-27T04:37:13.624Z,99.99
2018-06-27T04:38:14.303Z,99.99
2018-06-27T04:39:15.818Z,99.99
2018-06-27T04:40:13.753Z,99.99
2018-06-27T04:41:13.689Z,99.99
2018-06-27T04:42:13.698Z,99.99
2018-06-27T04:43:13.751Z,99.99
2018-06-27T04:44:13.734Z,99.99
2018-06-27T04:45:13.918Z,99.99
2018-06-27T04:46:13.765Z,99.99
2018-06-27T04:47:15.066Z,99.99
2018-06-27T04:48:13.779Z,99.99
2018-06-27T04:49:13.817Z,99.99
2018-06-27T04:50:13.822Z,99.99
2018-06-27T04:51:13.827Z,99.99
2018-06-27T04:52:13.845Z,99.99
2018-06-27T04:53:13.877Z,99.99
2018-06-27T04:54:13.866Z,99.99
2018-06-27T04:55:13.880Z,99.99
2018-06-27T04:56:14.319Z,99.99
2018-06-27T04:57:13.984Z,99.99
2018-06-27T04:58:13.952Z,99.99
2018-06-27T04:59:13.970Z,99.99
2018-06-27T05:00:13.979Z,99.99
2018-06-27T05:01:14.024Z,99.99
2018-06-27T05:02:14.158Z,99.99
2018-06-27T05:03:13.996Z,99.99
2018-06-27T05:04:14.040Z,99.99
2018-06-27T05:05:14.029Z,99.99
2018-06-27T05:06:14.054Z,99.99
2018-06-27T05:07:14.067Z,99.99
2018-06-27T05:08:14.160Z,99.99
2018-06-27T05:09:14.082Z,99.99
2018-06-27T05:10:14.458Z,99.99
2018-06-27T05:11:14.302Z,99.99
2018-06-27T05:12:14.157Z,99.99
2018-06-27T05:13:15.152Z,99.99
2018-06-27T05:14:14.303Z,99.99
2018-06-27T05:15:14.169Z,99.99
2018-06-27T05:16:14.187Z,99.99
2018-06-27T05:17:14.242Z,99.99
2018-06-27T05:18:14.235Z,99.99
2018-06-27T05:19:14.246Z,99.99
2018-06-27T05:20:14.267Z,99.99
2018-06-27T05:21:14.270Z,99.99
2018-06-27T05:22:14.275Z,99.99
2018-06-27T05:23:14.304Z,99.99
2018-06-27T05:25:14.333Z,99.99
2018-06-27T05:26:14.339Z,99.99
2018-06-27T05:27:14.388Z,99.99
2018-06-27T05:28:14.374Z,99.99
2018-06-27T05:29:14.414Z,99.99
2018-06-27T05:30:14.432Z,99.99
2018-06-27T05:31:14.421Z,99.99
2018-06-27T05:32:14.429Z,99.99
2018-06-27T05:33:14.458Z,99.99
2018-06-27T05:34:14.446Z,99.99
2018-06-27T05:35:14.500Z,99.99
2018-06-27T05:36:14.495Z,99.99
2018-06-27T05:37:14.493Z,99.99
2018-06-27T05:38:14.524Z,99.99
2018-06-27T05:39:14.536Z,99.99
2018-06-27T05:40:14.761Z,99.99
2018-06-27T05:41:14.643Z,99.99
2018-06-27T05:42:14.594Z,99.99
2018-06-27T05:43:14.595Z,99.99
2018-06-27T05:44:14.651Z,99.99
2018-06-27T05:45:14.648Z,99.99
2018-06-27T05:46:14.654Z,99.99
2018-06-27T05:47:14.639Z,99.99
2018-06-27T05:48:14.847Z,99.99
2018-06-27T05:49:15.508Z,99.99
2018-06-27T05:50:14.707Z,99.99
2018-06-27T05:51:15.188Z,99.99
2018-06-27T05:52:15.531Z,99.99
2018-06-27T05:53:14.755Z,99.99
2018-06-27T05:54:14.781Z,99.99
2018-06-27T05:55:14.785Z,99.99
2018-06-27T05:56:14.773Z,99.99
2018-06-27T05:57:14.804Z,99.99
2018-06-27T05:58:14.829Z,99.99
2018-06-27T05:59:15.470Z,99.99
2018-06-27T06:00:14.879Z,99.99
2018-06-27T06:01:14.884Z,99.99
2018-06-27T06:02:15.213Z,99.99
2018-06-27T06:03:15.097Z,99.99
2018-06-27T06:04:15.711Z,99.99
2018-06-27T06:05:14.951Z,99.99
2018-06-27T06:06:14.951Z,99.99
2018-06-27T06:07:14.995Z,99.99
2018-06-27T06:08:15.044Z,99.99
2018-06-27T06:09:15.026Z,99.99
2018-06-27T06:10:14.998Z,99.99
2018-06-27T06:11:15.131Z,99.99
2018-06-27T06:12:15.084Z,99.99
2018-06-27T06:13:15.200Z,99.99
2018-06-27T06:14:15.222Z,99.99
2018-06-27T06:15:15.050Z,99.99
2018-06-27T06:16:15.070Z,99.99
2018-06-27T06:17:15.080Z,99.43
2018-06-27T06:18:15.097Z,99.96
2018-06-27T06:19:15.113Z,99.10
2018-06-27T06:20:15.427Z,99.67
2018-06-27T06:21:15.146Z,99.48
2018-06-27T06:22:15.710Z,99.58
2018-06-27T06:24:15.850Z,99.38
2018-06-27T06:25:15.219Z,99.29
2018-06-27T06:26:15.628Z,99.19
2018-06-27T06:27:15.509Z,99.10
2018-06-27T06:28:15.254Z,98.43
2018-06-27T06:29:15.268Z,98.33
2018-06-27T06:30:15.273Z,97.90
2018-06-27T06:31:15.428Z,97.61
2018-06-27T06:32:15.336Z,97.23
2018-06-27T06:34:15.383Z,96.47
2018-06-27T06:35:15.428Z,96.84
2018-06-27T06:36:15.421Z,97.14
2018-06-27T06:38:15.444Z,97.23
2018-06-27T06:39:15.404Z,97.33
2018-06-27T06:40:15.731Z,97.33
2018-06-27T06:41:15.431Z,97.33
2018-06-27T06:42:15.543Z,96.94
2018-06-27T06:43:15.462Z,97.33
2018-06-27T06:44:15.478Z,97.42
2018-06-27T06:45:15.591Z,96.94
2018-06-27T06:46:15.557Z,97.14
2018-06-27T06:47:15.564Z,96.84
2018-06-27T06:48:15.599Z,97.14
2018-06-27T06:49:16.059Z,96.94
2018-06-27T06:51:16.218Z,96.66
2018-06-27T06:52:15.704Z,96.18
2018-06-27T06:53:15.863Z,96.37
2018-06-27T06:54:16.157Z,96.42
2018-06-27T06:55:15.710Z,95.94
2018-06-27T06:56:15.676Z,96.13
2018-06-27T06:57:15.736Z,96.32
2018-06-27T06:58:15.729Z,95.94
2018-06-27T06:59:16.174Z,96.42
2018-06-27T07:00:15.717Z,95.94
2018-06-27T07:01:15.819Z,95.65
2018-06-27T07:02:15.907Z,95.65
2018-06-27T07:03:15.778Z,95.36
2018-06-27T07:04:15.869Z,95.17
2018-06-27T07:05:15.941Z,94.79
2018-06-27T07:07:15.826Z,94.69
2018-06-27T07:08:15.839Z,95.41
2018-06-27T07:09:15.856Z,95.21
2018-06-27T07:10:15.868Z,94.89
2018-06-27T07:11:16.031Z,94.98
2018-06-27T07:12:16.566Z,95.03
2018-06-27T07:13:16.093Z,94.93
2018-06-27T07:14:16.183Z,94.35
2018-06-27T07:15:15.946Z,95.31
2018-06-27T07:16:16.010Z,94.74
2018-06-27T07:17:15.992Z,95.03
2018-06-27T07:18:15.990Z,94.64
2018-06-27T07:19:16.642Z,94.45
2018-06-27T07:20:16.985Z,94.35
2018-06-27T07:22:16.799Z,94.21
2018-06-27T07:23:16.849Z,94.12
2018-06-27T07:24:16.102Z,93.82
2018-06-27T07:25:16.099Z,93.15
2018-06-27T07:26:16.128Z,93.25
2018-06-27T07:27:16.132Z,93.25
2018-06-27T07:28:16.151Z,92.68
2018-06-27T07:29:16.250Z,93.06
2018-06-27T07:30:16.199Z,92.58
2018-06-27T07:31:16.242Z,92.39
2018-06-27T07:32:16.427Z,92.39
2018-06-27T07:33:16.370Z,92.72
2018-06-27T07:34:16.352Z,92.33
2018-06-27T07:35:16.362Z,91.66
2018-06-27T07:36:16.308Z,91.86
2018-06-27T07:37:16.301Z,91.47
2018-06-27T07:38:16.316Z,91.76
2018-06-27T07:39:16.335Z,91.76
2018-06-27T07:40:16.415Z,91.86
2018-06-27T07:41:16.347Z,91.96
2018-06-27T07:42:16.373Z,92.24
2018-06-27T07:43:16.387Z,92.14
2018-06-27T07:44:17.128Z,92.14
2018-06-27T07:45:17.053Z,92.24
2018-06-27T07:46:16.529Z,91.19
2018-06-27T07:47:16.479Z,91.42
2018-06-27T07:48:16.919Z,91.52
2018-06-27T07:49:18.747Z,90.75
2018-06-27T07:50:18.062Z,90.84
2018-06-27T07:51:16.507Z,89.98
2018-06-27T07:52:16.576Z,90.37
2018-06-27T07:53:16.533Z,89.79
2018-06-27T07:54:16.545Z,90.37
2018-06-27T07:55:16.753Z,89.79
2018-06-27T07:56:16.672Z,89.45
2018-06-27T07:57:16.729Z,88.97
2018-06-27T07:59:16.653Z,89.16
2018-06-27T08:00:16.675Z,89.16
2018-06-27T08:01:17.656Z,88.39
2018-06-27T08:02:16.728Z,88.87
2018-06-27T08:04:16.745Z,89.74
2018-06-27T08:05:16.720Z,89.74
2018-06-27T08:06:16.897Z,89.54
2018-06-27T08:07:16.758Z,88.49
2018-06-27T08:08:16.856Z,88.39
2018-06-27T08:09:16.845Z,89.16
2018-06-27T08:10:17.180Z,89.36
2018-06-27T08:11:17.016Z,88.97
2018-06-27T08:13:17.789Z,88.97
2018-06-27T08:14:17.241Z,89.16
2018-06-27T08:15:17.835Z,89.07
2018-06-27T08:16:19.066Z,89.07
2018-06-27T08:17:16.975Z,88.97
2018-06-27T08:18:17.076Z,89.54
2018-06-27T08:19:16.959Z,89.74
2018-06-27T08:20:16.957Z,89.16
2018-06-27T08:21:17.069Z,89.45
2018-06-27T08:22:17.136Z,89.54
2018-06-27T08:23:17.108Z,89.26
2018-06-27T08:24:17.101Z,88.87
2018-06-27T08:25:17.046Z,89.26
2018-06-27T08:26:17.107Z,88.59
2018-06-27T08:27:17.192Z,88.97
2018-06-27T08:28:17.275Z,89.54
2018-06-27T08:29:17.109Z,89.54
2018-06-27T08:30:17.141Z,88.78
2018-06-27T08:31:18.194Z,89.11
2018-06-27T08:32:17.852Z,88.73
2018-06-27T08:33:17.268Z,88.24
2018-06-27T08:34:17.461Z,88.53
2018-06-27T08:35:17.277Z,88.44
2018-06-27T08:36:17.229Z,88.82
2018-06-27T08:37:17.230Z,88.34
2018-06-27T08:38:17.281Z,87.86
2018-06-27T08:39:17.255Z,87.76
2018-06-27T08:40:17.267Z,87.67
2018-06-27T08:41:17.285Z,87.33
2018-06-27T08:42:17.305Z,87.23
2018-06-27T08:43:17.418Z,86.27
2018-06-27T08:44:17.335Z,86.08
2018-06-27T08:45:17.345Z,86.08
2018-06-27T08:46:17.360Z,86.36
2018-06-27T08:47:17.411Z,86.18
2018-06-27T08:48:17.400Z,86.56
2018-06-27T08:49:17.555Z,85.93
2018-06-27T08:50:17.574Z,85.74
2018-06-27T08:51:17.453Z,86.12
2018-06-27T08:52:17.463Z,85.93
2018-06-27T08:53:17.658Z,85.93
2018-06-27T08:55:17.860Z,85.74
2018-06-27T08:56:17.985Z,85.25
2018-06-27T08:57:17.542Z,85.25
2018-06-27T08:58:17.570Z,84.91
2018-06-27T08:59:17.571Z,84.62
2018-06-27T09:00:17.598Z,84.33
2018-06-27T09:01:17.602Z,85.00
2018-06-27T09:02:17.846Z,84.14
2018-06-27T09:03:17.676Z,83.85
2018-06-27T09:04:18.080Z,83.85
2018-06-27T09:06:18.672Z,82.93
2018-06-27T09:07:18.308Z,82.83
2018-06-27T09:09:17.729Z,82.45
2018-06-27T09:12:17.844Z,81.77
2018-06-27T09:13:17.797Z,81.96
2018-06-27T09:14:17.814Z,81.58
2018-06-27T09:15:17.831Z,81.62
2018-06-27T09:16:17.853Z,81.52
2018-06-27T09:17:17.857Z,80.94
2018-06-27T09:18:17.877Z,81.43
2018-06-27T09:19:17.904Z,81.43
2018-06-27T09:20:17.918Z,80.94
2018-06-27T09:21:17.973Z,81.04
2018-06-27T09:22:17.940Z,80.56
2018-06-27T09:23:17.955Z,80.66
2018-06-27T09:24:17.971Z,80.56
2018-06-27T09:25:17.992Z,80.76
2018-06-27T09:26:18.006Z,81.14
2018-06-27T09:27:18.162Z,80.66
2018-06-27T09:28:18.849Z,80.66
2018-06-27T09:29:18.062Z,80.85
2018-06-27T09:30:18.571Z,80.66
2018-06-27T09:31:18.180Z,80.41
2018-06-27T09:32:18.104Z,79.89
2018-06-27T09:33:18.182Z,80.41
2018-06-27T09:34:18.431Z,79.44
2018-06-27T09:35:18.154Z,79.06
2018-06-27T09:37:18.179Z,78.77
2018-06-27T09:39:18.222Z,78.91
2018-06-27T09:40:18.810Z,78.42
2018-06-27T09:41:18.482Z,78.61
2018-06-27T09:42:19.291Z,78.42
2018-06-27T09:43:18.279Z,78.36
2018-06-27T09:44:18.872Z,77.84
2018-06-27T09:45:18.457Z,77.65
2018-06-27T09:46:18.385Z,77.59
2018-06-27T09:47:18.814Z,77.59
2018-06-27T09:48:18.620Z,77.21
2018-06-27T09:49:18.432Z,77.30
2018-06-27T09:50:18.457Z,76.82
2018-06-27T09:51:18.731Z,76.92
2018-06-27T09:52:18.845Z,76.82
2018-06-27T09:53:18.614Z,77.59
2018-06-27T09:54:18.852Z,78.27
2018-06-27T09:55:18.770Z,77.40
2018-06-27T09:56:18.520Z,77.59
2018-06-27T09:57:18.516Z,76.82
2018-06-27T09:58:18.539Z,77.78
2018-06-27T09:59:19.361Z,77.21
2018-06-27T10:00:19.131Z,77.30
2018-06-27T10:01:18.590Z,77.01
2018-06-27T10:02:18.673Z,76.63
2018-06-27T10:03:18.753Z,76.53
2018-06-27T10:04:18.636Z,76.63
2018-06-27T10:05:18.690Z,76.82
2018-06-27T10:06:18.663Z,75.85
2018-06-27T10:07:18.688Z,75.95
2018-06-27T10:08:18.697Z,76.24
2018-06-27T10:09:18.708Z,76.15
2018-06-27T10:10:18.731Z,75.67
2018-06-27T10:11:18.775Z,75.70
2018-06-27T10:12:18.764Z,74.83
2018-06-27T10:13:18.783Z,74.83
2018-06-27T10:14:18.793Z,74.73
2018-06-27T10:15:18.817Z,73.86
2018-06-27T10:16:18.830Z,73.80
2018-06-27T10:17:18.934Z,73.61
2018-06-27T10:18:18.932Z,72.94
2018-06-27T10:19:18.892Z,73.32
2018-06-27T10:20:19.040Z,72.84
2018-06-27T10:21:18.911Z,73.32
2018-06-27T10:22:18.989Z,73.13
2018-06-27T10:23:18.949Z,72.94
2018-06-27T10:24:18.968Z,73.03
2018-06-27T10:25:18.978Z,72.74
2018-06-27T10:26:19.005Z,72.64
2018-06-27T10:27:19.016Z,72.16
2018-06-27T10:28:19.038Z,71.20
2018-06-27T10:29:19.049Z,71.97
2018-06-27T10:30:19.072Z,71.42
2018-06-27T10:31:19.082Z,70.46
2018-06-27T10:32:19.109Z,70.56
2018-06-27T10:33:19.140Z,70.36
2018-06-27T10:34:19.130Z,69.49
2018-06-27T10:35:19.148Z,69.59
2018-06-27T10:36:19.168Z,69.20
2018-06-27T10:37:19.184Z,70.42
2018-06-27T10:38:19.209Z,71.39
2018-06-27T10:39:19.227Z,71.30
2018-06-27T10:40:19.236Z,71.68
2018-06-27T10:41:19.257Z,71.42
2018-06-27T10:42:21.272Z,70.36
2018-06-27T10:43:19.296Z,69.72
2018-06-27T10:44:19.302Z,70.40
2018-06-27T10:45:19.323Z,69.53
2018-06-27T10:46:19.334Z,68.75
2018-06-27T10:47:19.356Z,68.75
2018-06-27T10:48:19.368Z,68.17
2018-06-27T10:49:19.388Z,67.88
2018-06-27T10:50:19.400Z,67.49
2018-06-27T10:51:19.452Z,67.01
2018-06-27T10:52:19.434Z,67.05
2018-06-27T10:53:19.450Z,67.24
2018-06-27T10:54:19.488Z,68.21
2018-06-27T10:55:19.485Z,67.43
2018-06-27T10:56:19.501Z,67.05
2018-06-27T10:57:19.522Z,67.24
2018-06-27T10:58:19.540Z,66.47
2018-06-27T10:59:19.556Z,65.88
2018-06-27T11:00:19.571Z,66.27
2018-06-27T11:01:19.591Z,65.72
2018-06-27T11:02:19.616Z,63.31
2018-06-27T11:03:19.634Z,62.72
2018-06-27T11:04:19.642Z,61.56
2018-06-27T11:05:19.673Z,61.56
2018-06-27T11:06:19.676Z,61.36
2018-06-27T11:07:19.694Z,62.24
2018-06-27T11:08:19.713Z,62.43
2018-06-27T11:09:19.731Z,61.95
2018-06-27T11:10:19.749Z,63.79
2018-06-27T11:11:19.763Z,63.69
2018-06-27T11:12:19.786Z,64.20
2018-06-27T11:13:19.800Z,63.04
2018-06-27T11:14:19.829Z,62.07
2018-06-27T11:15:19.879Z,60.36
2018-06-27T11:16:19.861Z,60.07
2018-06-27T11:17:20.342Z,59.00
2018-06-27T11:18:19.896Z,58.81
2018-06-27T11:19:19.921Z,58.52
2018-06-27T11:20:19.954Z,57.84
2018-06-27T11:21:19.944Z,57.07
2018-06-27T11:22:19.964Z,57.45
2018-06-27T11:23:21.244Z,57.84
2018-06-27T11:24:19.997Z,57.75
2018-06-27T11:25:20.033Z,59.03
2018-06-27T11:26:20.032Z,58.45
2018-06-27T11:27:20.058Z,56.81
2018-06-27T11:28:20.068Z,57.09
2018-06-27T11:29:20.108Z,57.87
2018-06-27T11:30:20.111Z,57.78
2018-06-27T11:31:20.184Z,57.78
2018-06-27T11:32:20.144Z,57.26
2018-06-27T11:33:20.160Z,56.10
2018-06-27T11:34:20.183Z,57.07
2018-06-27T11:35:20.198Z,57.17
2018-06-27T11:36:20.217Z,56.68
2018-06-27T11:37:20.230Z,56.39
2018-06-27T11:38:20.261Z,57.26
2018-06-27T11:39:20.271Z,57.48
2018-06-27T11:40:20.292Z,56.97
2018-06-27T11:41:20.303Z,57.55
2018-06-27T11:42:20.325Z,56.13
2018-06-27T11:43:20.389Z,55.13
2018-06-27T11:44:20.365Z,55.13
2018-06-27T11:45:20.381Z,55.04
2018-06-27T11:46:20.401Z,55.62
2018-06-27T11:47:20.561Z,55.44
2018-06-27T11:49:20.786Z,55.64
2018-06-27T11:50:20.490Z,54.58
2018-06-27T11:51:20.490Z,55.93
2018-06-27T11:52:20.505Z,55.06
2018-06-27T11:53:20.542Z,53.99
2018-06-27T11:54:20.553Z,54.67
2018-06-27T11:55:20.559Z,54.96
2018-06-27T11:56:20.584Z,55.06
2018-06-27T11:58:20.623Z,54.50
2018-06-27T11:59:20.634Z,53.73
2018-06-27T12:00:20.653Z,53.05
2018-06-27T12:01:20.672Z,54.02
2018-06-27T12:02:20.689Z,55.02
2018-06-27T12:03:20.710Z,55.41
2018-06-27T12:04:20.730Z,53.37
2018-06-27T12:05:20.743Z,52.69
2018-06-27T12:06:20.813Z,53.17
2018-06-27T12:07:20.786Z,52.72
2018-06-27T12:08:20.809Z,51.84
2018-06-27T12:09:20.820Z,51.75
2018-06-27T12:10:20.844Z,51.06
2018-06-27T12:11:20.860Z,51.65
2018-06-27T12:12:20.877Z,52.23
2018-06-27T12:13:20.898Z,51.93
2018-06-27T12:14:20.915Z,53.49
2018-06-27T12:15:20.933Z,52.81
2018-06-27T12:16:20.955Z,51.35
2018-06-27T12:17:20.972Z,53.08
2018-06-27T12:18:20.991Z,53.69
2018-06-27T12:19:21.010Z,54.07
2018-06-27T12:20:21.031Z,51.75
2018-06-27T12:21:21.049Z,49.87
2018-06-27T12:22:21.078Z,50.16
2018-06-27T12:23:21.087Z,51.62
2018-06-27T12:24:21.106Z,51.11
2018-06-27T12:25:21.124Z,52.73
2018-06-27T12:26:21.158Z,51.57
2018-06-27T12:27:21.162Z,51.47
2018-06-27T12:28:21.212Z,51.98
2018-06-27T12:29:21.206Z,51.01
2018-06-27T12:30:21.231Z,50.16
2018-06-27T12:31:21.247Z,50.38
2018-06-27T12:32:21.319Z,49.80
2018-06-27T12:33:21.284Z,50.19
2018-06-27T12:34:21.295Z,48.54
2018-06-27T12:35:21.318Z,48.75
2018-06-27T12:36:21.337Z,48.18
2018-06-27T12:37:21.361Z,48.57
2018-06-27T12:38:21.378Z,48.37
2018-06-27T12:39:21.411Z,49.54
2018-06-27T12:40:21.428Z,50.36
2018-06-27T12:41:21.439Z,51.04
2018-06-27T12:42:21.464Z,50.74
2018-06-27T12:43:21.490Z,51.14
2018-06-27T12:44:21.567Z,53.08
2018-06-27T12:45:21.531Z,49.99
2018-06-27T12:46:21.549Z,49.80
2018-06-27T12:47:21.569Z,49.32
2018-06-27T12:48:21.593Z,50.31
2018-06-27T12:49:21.614Z,49.46
2018-06-27T12:50:21.644Z,49.37
2018-06-27T12:51:21.661Z,49.37
2018-06-27T12:52:21.720Z,46.94
2018-06-27T12:53:21.728Z,48.18
2018-06-27T12:54:21.731Z,48.47
2018-06-27T12:55:21.763Z,47.52
2018-06-27T12:56:21.774Z,47.20
2018-06-27T12:57:21.797Z,48.18
2018-06-27T12:58:21.822Z,46.25
2018-06-27T12:59:21.848Z,45.72
2018-06-27T13:00:21.911Z,44.86
2018-06-27T13:01:21.944Z,44.23
2018-06-27T13:02:21.917Z,42.88
2018-06-27T13:03:21.996Z,43.27
2018-06-27T13:04:21.990Z,43.84
2018-06-27T13:05:22.042Z,44.23
2018-06-27T13:06:22.018Z,43.95
2018-06-27T13:07:22.037Z,42.93
2018-06-27T13:08:22.089Z,41.85
2018-06-27T13:09:22.160Z,42.48
2018-06-27T13:10:22.116Z,40.74
2018-06-27T13:11:22.139Z,40.50
2018-06-27T13:12:22.195Z,41.09
2018-06-27T13:13:22.195Z,42.29
2018-06-27T13:14:22.217Z,39.28
2018-06-27T13:15:22.241Z,38.28
2018-06-27T13:16:22.273Z,40.25
2018-06-27T13:17:22.295Z,42.30